Time;durP1;ratioP1;P1;durP2;ratioP2;P2;SDS_P1;SDS_P2;PMS_P1;PMS_P2;Temp;Humidity;BMP_temperature;BMP_pressure;BME280_temperature;BME280_humidity;BME280_pressure;Samples;Min_cycle;Max_cycle;Signal;HPM_P1;HPM_P2
2023/03/09 08:58:28;;;;;;;3.30;1.13;;;;;;;10.18;100.00;97032.69;5150644;27;20564;-81
2023/03/09 09:00:56;;;;;;;2.97;1.70;;;;;;;10.79;100.00;97050.91;5149961;27;40915;-82
2023/03/09 09:03:23;;;;;;;1.97;1.83;;;;;;;11.43;100.00;97055.50;5149332;27;41078;-82
2023/03/09 09:05:51;;;;;;;2.30;0.90;;;;;;;12.14;97.93;97066.34;5132818;27;41867;-84
2023/03/09 09:08:19;;;;;;;1.67;0.93;;;;;;;12.55;92.97;97060.47;5149126;27;41948;-85
2023/03/09 09:10:47;;;;;;;2.53;0.90;;;;;;;12.77;90.30;97079.56;5132735;27;39249;-82
2023/03/09 09:13:15;;;;;;;1.30;0.90;;;;;;;12.78;88.71;97065.31;5149006;27;41677;-85
2023/03/09 09:15:44;;;;;;;2.90;0.90;;;;;;;12.78;89.62;97075.94;5133025;27;43117;-86
2023/03/09 09:18:12;;;;;;;1.27;0.90;;;;;;;12.55;89.18;97079.06;5132090;27;42131;-84
2023/03/09 09:20:40;;;;;;;1.00;0.90;;;;;;;12.52;88.59;97084.66;5132855;27;39354;-85
2023/03/09 09:23:08;;;;;;;2.97;1.10;;;;;;;12.46;88.42;97121.59;5149210;27;41853;-82
2023/03/09 09:25:36;;;;;;;1.27;1.07;;;;;;;12.41;86.99;97119.38;5149710;27;43793;-80
2023/03/09 09:28:05;;;;;;;4.60;1.17;;;;;;;12.33;85.75;97119.31;5148761;27;42930;-87
2023/03/09 09:30:35;;;;;;;2.00;1.20;;;;;;;12.31;86.30;97131.88;5132710;27;38895;-85
2023/03/09 09:33:06;;;;;;;1.23;0.97;;;;;;;12.34;86.09;97110.38;5150124;27;44031;-86
2023/03/09 09:35:33;;;;;;;4.40;1.20;;;;;;;12.51;85.30;97133.44;5132442;27;42654;-81
2023/03/09 09:38:01;;;;;;;1.57;1.17;;;;;;;12.49;85.55;97124.78;5131043;27;41314;-84
2023/03/09 09:40:30;;;;;;;3.47;1.30;;;;;;;12.44;84.56;97108.47;5132631;27;38894;-88
2023/03/09 09:42:58;;;;;;;1.07;0.70;;;;;;;12.44;83.76;97142.16;5131645;27;40721;-83
2023/03/09 09:45:30;;;;;;;1.23;1.00;;;;;;;12.34;84.45;97131.59;5132470;27;42138;-86
2023/03/09 09:48:02;;;;;;;1.17;1.03;;;;;;;12.55;85.10;97156.06;5152048;27;40936;-86
2023/03/09 09:50:48;;;;;;;2.50;1.40;;;;;;;12.51;84.02;97136.09;5139231;27;39198;-82
2023/03/09 09:53:30;;;;;;;1.37;1.20;;;;;;;12.59;83.44;97161.91;5148971;27;41638;-83
2023/03/09 09:55:58;;;;;;;1.80;0.70;;;;;;;12.36;84.43;97156.19;5148243;27;42862;-81
2023/03/09 09:58:36;;;;;;;2.03;0.87;;;;;;;12.40;85.79;97160.19;5149016;27;42826;-82
2023/03/09 10:01:07;;;;;;;1.47;0.90;;;;;;;12.32;86.08;97143.34;5132890;27;40181;-81
2023/03/09 10:03:39;;;;;;;1.07;0.80;;;;;;;12.21;86.25;97155.00;5132491;27;40826;-83
2023/03/09 10:06:17;;;;;;;1.40;0.73;;;;;;;12.34;86.93;97166.09;5132112;27;43231;-82
2023/03/09 10:08:49;;;;;;;2.03;0.90;;;;;;;12.43;87.29;97167.03;5123692;27;42160;-83
2023/03/09 10:11:23;;;;;;;2.27;1.20;;;;;;;12.58;87.32;97170.84;5118146;27;38787;-82
2023/03/09 10:13:56;;;;;;;2.17;1.10;;;;;;;12.64;86.69;97164.94;5117458;27;41949;-83
2023/03/09 10:16:30;;;;;;;1.83;1.00;;;;;;;12.51;86.36;97164.44;5117996;27;41848;-84
2023/03/09 10:19:01;;;;;;;2.43;1.30;;;;;;;12.50;86.79;97190.16;5118331;27;41372;-83
2023/03/09 10:21:36;;;;;;;3.40;1.00;;;;;;;12.45;86.67;97171.22;5118077;27;41383;-84
2023/03/09 10:24:19;;;;;;;1.33;0.80;;;;;;;12.58;86.42;97190.28;5134369;27;40549;-83
2023/03/09 10:26:55;;;;;;;3.10;1.23;;;;;;;12.56;86.05;97186.94;5117823;27;44147;-82
2023/03/09 10:29:30;;;;;;;1.93;1.17;;;;;;;12.65;86.18;97194.97;5117496;27;41062;-81
2023/03/09 10:32:05;;;;;;;1.83;0.90;;;;;;;12.58;86.16;97181.47;5134059;27;40056;-82
2023/03/09 10:34:40;;;;;;;1.23;1.00;;;;;;;12.66;85.65;97194.84;5117261;27;41071;-82
2023/03/09 10:37:17;;;;;;;2.77;0.80;;;;;;;12.70;85.32;97195.38;5136044;27;43317;-81
2023/03/09 10:39:48;;;;;;;1.40;1.03;;;;;;;12.68;84.75;97215.94;5117314;27;41610;-83
2023/03/09 10:42:20;;;;;;;1.53;0.90;;;;;;;12.65;84.28;97218.88;5117081;27;39213;-82
2023/03/09 10:44:58;;;;;;;2.20;1.00;;;;;;;12.49;84.53;97204.41;5132449;27;42785;-83
2023/03/09 10:47:25;;;;;;;1.43;1.20;;;;;;;12.58;84.81;97208.03;5133261;27;43807;-83
2023/03/09 10:50:10;;;;;;;3.43;1.47;;;;;;;12.73;84.75;97226.97;5116746;27;41931;-84
2023/03/09 10:52:39;;;;;;;1.83;1.20;;;;;;;12.79;84.34;97226.34;5117472;27;38677;-83
2023/03/09 10:55:30;;;;;;;2.87;1.10;;;;;;;12.69;82.89;97220.25;5133730;27;41949;-80
2023/03/09 10:58:00;;;;;;;1.60;0.80;;;;;;;12.71;83.85;97228.91;5133304;27;42900;-84
2023/03/09 11:00:28;;;;;;;1.60;0.97;;;;;;;12.86;83.60;97235.38;5134390;27;42859;-82
2023/03/09 11:02:59;;;;;;;2.40;0.93;;;;;;;12.91;82.80;97233.97;5116264;27;39149;-83
2023/03/09 11:05:29;;;;;;;1.00;0.70;;;;;;;13.14;82.22;97234.38;5134434;27;42752;-83
2023/03/09 11:08:02;;;;;;;2.97;0.93;;;;;;;13.14;81.29;97229.06;5116181;27;41817;-83
2023/03/09 11:10:32;;;;;;;4.60;1.00;;;;;;;13.40;80.97;97237.13;5117101;27;41232;-82
2023/03/09 11:13:02;;;;;;;2.63;1.00;;;;;;;13.64;79.80;97242.63;5116299;27;40249;-84
2023/03/09 11:15:32;;;;;;;4.73;1.07;;;;;;;14.34;77.62;97274.56;5116818;27;41696;-84
2023/03/09 11:18:02;;;;;;;3.33;1.00;;;;;;;14.87;75.79;97286.81;5115849;27;41886;-86
2023/03/09 11:20:33;;;;;;;3.40;1.40;;;;;;;15.33;72.03;97286.28;5115800;27;41336;-85
2023/03/09 11:23:21;;;;;;;4.20;1.40;;;;;;;15.25;71.18;97264.94;5116348;27;38621;-87
2023/03/09 11:26:02;;;;;;;5.17;1.50;;;;;;;15.29;71.29;97276.94;5131002;27;42452;-82
2023/03/09 11:28:42;;;;;;;2.50;1.20;;;;;;;15.33;70.27;97293.47;5131090;27;42688;-83
2023/03/09 11:31:14;;;;;;;5.70;1.10;;;;;;;15.48;69.54;97280.28;5130607;27;43181;-82
2023/03/09 11:33:43;;;;;;;4.57;1.30;;;;;;;15.82;68.15;97292.53;5115897;27;38838;-84
2023/03/09 11:36:15;;;;;;;4.20;1.40;;;;;;;15.86;68.22;97279.69;5116012;27;42923;-81
2023/03/09 11:38:45;;;;;;;2.30;1.00;;;;;;;15.99;66.02;97288.03;5133222;27;42227;-88
2023/03/09 11:41:19;;;;;;;3.87;1.80;;;;;;;16.11;66.43;97297.34;5116570;27;42076;-87
2023/03/09 11:43:51;;;;;;;5.00;1.40;;;;;;;16.10;65.28;97306.38;5116053;27;39883;-86
2023/03/09 11:46:21;;;;;;;6.93;1.43;;;;;;;16.16;65.19;97308.38;5116348;27;40615;-85
2023/03/09 11:48:52;;;;;;;3.13;1.10;;;;;;;16.15;65.15;97295.19;5115560;27;44331;-84
2023/03/09 11:51:25;;;;;;;3.57;1.50;;;;;;;16.09;63.73;97291.34;5130943;27;42136;-86
2023/03/09 11:54:02;;;;;;;5.50;1.93;;;;;;;15.87;63.87;97285.84;5115665;27;39741;-87
2023/03/09 11:56:34;;;;;;;4.13;1.70;;;;;;;15.99;64.86;97296.03;5115803;27;40494;-86
2023/03/09 11:59:08;;;;;;;1.97;1.00;;;;;;;16.20;65.89;97308.03;5115783;27;41821;-85
2023/03/09 12:01:42;;;;;;;4.50;1.20;;;;;;;16.74;63.82;97299.25;5115956;27;41051;-89
2023/03/09 12:04:10;;;;;;;3.70;1.40;;;;;;;17.04;63.14;97304.84;5130677;27;39879;-86
2023/03/09 12:06:50;;;;;;;3.50;1.40;;;;;;;16.74;62.14;97295.75;5116052;27;41981;-86
2023/03/09 12:09:28;;;;;;;2.67;1.37;;;;;;;16.46;62.57;97303.31;5115441;27;44599;-88
2023/03/09 12:12:00;;;;;;;5.93;1.20;;;;;;;16.33;63.39;97286.97;5133090;27;42381;-83
2023/03/09 12:14:34;;;;;;;3.27;1.30;;;;;;;16.14;63.13;97305.03;5116031;27;39778;-87
2023/03/09 12:17:12;;;;;;;1.90;0.97;;;;;;;16.14;63.76;97302.38;5115767;27;42469;-84
2023/03/09 12:19:47;;;;;;;3.93;1.27;;;;;;;16.08;63.92;97299.53;5130729;27;43711;-84
2023/03/09 12:22:18;;;;;;;3.43;1.10;;;;;;;16.10;64.75;97292.19;5115873;27;41976;-81
2023/03/09 12:24:56;;;;;;;2.73;1.27;;;;;;;15.90;64.63;97283.69;5133734;27;39145;-84
2023/03/09 12:27:26;;;;;;;1.70;1.00;;;;;;;15.57;64.16;97298.03;5139185;27;42252;-80
2023/03/09 12:30:06;;;;;;;1.53;0.90;;;;;;;15.40;65.63;97279.31;5150628;27;43691;-83
2023/03/09 12:32:44;;;;;;;1.00;0.90;;;;;;;15.43;66.17;97288.81;5132263;27;41998;-91
2023/03/09 12:35:29;;;;;;;4.07;1.20;;;;;;;15.51;66.42;97288.81;5116341;27;40408;-81
2023/03/09 12:38:06;;;;;;;2.27;0.90;;;;;;;15.82;65.22;97286.38;5102499;27;41580;-83
2023/03/09 12:40:38;;;;;;;2.43;1.10;;;;;;;16.33;64.06;97276.28;5115910;27;41703;-89
2023/03/09 12:43:51;;;;;;;2.37;0.90;;;;;;;16.85;61.90;97298.88;5115204;27;41446;-86
2023/03/09 12:46:58;;;;;;;3.23;1.20;;;;;;;17.51;59.49;97321.63;5115444;27;39026;-84
2023/03/09 12:49:29;;;;;;;2.33;0.90;;;;;;;17.31;58.98;97309.69;5091930;27;42019;-89
2023/03/09 12:52:18;;;;;;;1.60;0.70;;;;;;;16.59;59.97;97284.91;5115837;27;43612;-85
2023/03/09 12:54:55;;;;;;;1.00;0.70;;;;;;;16.44;60.06;97300.00;5115229;27;42565;-82
2023/03/09 12:57:25;;;;;;;2.23;0.80;;;;;;;16.23;60.92;97280.97;5133139;27;39870;-84
2023/03/09 12:59:53;;;;;;;1.87;0.80;;;;;;;16.23;61.01;97303.19;5115787;27;40762;-85
2023/03/09 13:02:28;;;;;;;3.07;0.70;;;;;;;16.14;60.71;97305.03;5132577;27;42767;-85
2023/03/09 13:05:26;;;;;;;1.83;1.23;;;;;;;16.12;61.85;97296.34;5115732;27;40958;-87
2023/03/09 13:07:58;;;;;;;2.57;0.73;;;;;;;16.22;61.79;97296.16;5132338;27;39954;-83
2023/03/09 13:10:31;;;;;;;3.00;1.30;;;;;;;16.31;61.33;97305.03;5132970;27;40715;-82
2023/03/09 13:13:32;;;;;;;2.17;0.90;;;;;;;16.36;60.61;97302.66;5114917;27;41509;-85
2023/03/09 13:16:48;;;;;;;2.87;0.77;;;;;;;16.48;60.50;97306.66;5115417;27;42064;-85
2023/03/09 13:19:49;;;;;;;3.07;1.20;;;;;;;16.47;59.72;97310.31;5115220;27;38656;-89
2023/03/09 13:22:21;;;;;;;5.83;1.37;;;;;;;16.62;59.29;97303.31;5131286;27;41794;-83
2023/03/09 13:24:51;;;;;;;2.73;1.20;;;;;;;16.58;58.65;97290.41;5115052;27;41819;-80
2023/03/09 13:27:24;;;;;;;2.07;0.90;;;;;;;17.02;57.93;97301.50;5132790;27;42492;-84
2023/03/09 13:29:55;;;;;;;3.30;1.00;;;;;;;17.65;57.10;97317.41;5115387;27;40324;-85
2023/03/09 13:32:27;;;;;;;2.27;1.00;;;;;;;18.81;54.13;97328.59;5132283;27;40307;-86
2023/03/09 13:34:59;;;;;;;2.93;1.10;;;;;;;19.03;50.57;97351.00;5114393;27;41855;-82
2023/03/09 13:37:29;;;;;;;2.63;1.10;;;;;;;19.21;51.16;97361.34;5131077;27;43158;-80
2023/03/09 13:39:59;;;;;;;4.67;1.23;;;;;;;19.66;49.82;97347.66;5114116;27;39208;-84
2023/03/09 13:42:29;;;;;;;4.43;1.30;;;;;;;20.75;47.15;97348.28;5114639;27;40735;-85
2023/03/09 13:44:57;;;;;;;2.77;1.00;;;;;;;20.82;46.67;97362.59;5134693;27;42665;-85
2023/03/09 13:47:27;;;;;;;2.37;1.00;;;;;;;20.26;47.29;97354.47;5118239;27;41788;-85
2023/03/09 13:49:58;;;;;;;1.60;1.00;;;;;;;19.41;47.29;97361.59;5118198;27;39253;-86
2023/03/09 13:52:28;;;;;;;2.53;1.00;;;;;;;18.67;49.39;97343.66;5135334;27;42026;-85
2023/03/09 13:54:57;;;;;;;2.10;0.90;;;;;;;18.14;51.01;97341.97;5113882;28;41916;-83
2023/03/09 13:57:27;;;;;;;2.43;0.93;;;;;;;17.52;52.78;97334.00;5096934;28;41170;-82
2023/03/09 13:59:58;;;;;;;3.83;1.27;;;;;;;17.00;53.87;97316.88;5149143;27;40242;-85
2023/03/09 14:02:27;;;;;;;1.93;0.90;;;;;;;16.67;55.22;97306.31;5135307;27;41867;-83
2023/03/09 14:05:17;;;;;;;3.53;1.37;;;;;;;16.57;56.81;97324.31;5117584;27;43087;-86
2023/03/09 14:07:48;;;;;;;2.50;1.20;;;;;;;16.21;56.82;97307.84;5117769;27;41135;-83
2023/03/09 14:10:24;;;;;;;1.60;1.10;;;;;;;16.30;57.28;97319.38;5117138;27;41571;-85
2023/03/09 14:12:55;;;;;;;3.73;1.20;;;;;;;16.37;57.88;97315.03;5117467;27;41364;-89
2023/03/09 14:15:24;;;;;;;3.63;1.40;;;;;;;16.53;57.54;97309.66;5117707;27;42912;-84
2023/03/09 14:17:53;;;;;;;3.20;1.37;;;;;;;16.87;56.84;97312.09;5117052;27;41595;-84
2023/03/09 14:20:24;;;;;;;3.53;0.93;;;;;;;17.85;55.27;97313.22;5117267;27;41521;-83
2023/03/09 14:22:53;;;;;;;1.90;1.00;;;;;;;18.79;52.41;97332.50;5134338;27;41338;-82
2023/03/09 14:25:33;;;;;;;1.97;0.80;;;;;;;19.73;49.96;97348.59;5117173;27;41912;-84
2023/03/09 14:28:01;;;;;;;1.10;0.70;;;;;;;20.17;48.07;97350.25;5116687;27;41540;-85
2023/03/09 14:30:41;;;;;;;1.43;0.60;;;;;;;20.63;47.61;97323.78;5134720;27;40234;-85
2023/03/09 14:33:23;;;;;;;1.80;0.70;;;;;;;21.22;46.41;97360.19;5134256;27;40570;-88
2023/03/09 14:36:06;;;;;;;0.80;0.60;;;;;;;21.59;45.52;97367.81;5132515;27;43801;-86
2023/03/09 14:38:34;;;;;;;2.30;0.60;;;;;;;21.70;45.13;97366.38;5132276;27;42361;-85
2023/03/09 14:41:13;;;;;;;2.00;0.63;;;;;;;21.97;44.35;97362.72;5117538;27;40166;-85
2023/03/09 14:43:43;;;;;;;1.80;0.60;;;;;;;22.04;44.20;97362.75;5131074;27;41700;-87
2023/03/09 14:46:17;;;;;;;1.10;0.63;;;;;;;21.47;44.56;97369.41;5116926;27;41952;-87
2023/03/09 14:48:48;;;;;;;1.67;0.60;;;;;;;20.98;45.93;97335.38;5131210;27;43450;-88
2023/03/09 14:51:21;;;;;;;1.77;0.70;;;;;;;20.65;46.98;97353.16;5117470;27;40241;-87
2023/03/09 14:54:11;;;;;;;2.40;0.97;;;;;;;20.39;47.16;97343.88;5117003;27;40824;-88
2023/03/09 14:56:38;;;;;;;2.20;0.70;;;;;;;19.91;48.10;97331.19;5117616;27;41380;-85
2023/03/09 14:59:13;;;;;;;2.07;0.80;;;;;;;19.47;48.81;97332.13;5135842;27;41139;-86
2023/03/09 15:01:45;;;;;;;1.80;0.60;;;;;;;18.94;49.24;97320.72;5136594;27;39137;-87
2023/03/09 15:04:15;;;;;;;2.23;0.87;;;;;;;18.76;49.71;97316.78;5128940;27;41356;-84
2023/03/09 15:06:44;;;;;;;1.60;0.90;;;;;;;18.58;50.90;97309.06;5126920;27;42270;-85
2023/03/09 15:09:13;;;;;;;2.73;0.93;;;;;;;18.64;51.21;97311.88;5134567;27;41481;-88
2023/03/09 15:11:42;;;;;;;4.00;1.03;;;;;;;18.48;51.43;97287.88;5116764;27;38533;-89
2023/03/09 15:14:15;;;;;;;2.10;0.87;;;;;;;18.50;51.65;97303.78;5116504;27;42044;-85
2023/03/09 15:16:43;;;;;;;2.20;0.80;;;;;;;18.44;51.50;97297.28;5117501;27;41463;-86
2023/03/09 15:19:16;;;;;;;2.23;0.87;;;;;;;18.27;51.70;97296.63;5117032;27;41011;-85
2023/03/09 15:21:49;;;;;;;1.80;1.00;;;;;;;17.75;51.87;97274.31;5117290;27;38991;-86
2023/03/09 15:24:16;;;;;;;1.73;0.90;;;;;;;17.45;52.79;97290.22;5117434;27;42127;-86
2023/03/09 15:26:44;;;;;;;2.10;1.00;;;;;;;17.06;53.80;97279.56;5116741;27;42831;-84
2023/03/09 15:29:12;;;;;;;3.70;1.23;;;;;;;16.86;54.66;97289.84;5117081;27;42336;-85
2023/03/09 15:31:40;;;;;;;2.67;1.10;;;;;;;16.76;55.52;97283.88;5136521;27;41159;-86
2023/03/09 15:34:07;;;;;;;4.60;1.70;;;;;;;16.56;55.68;97263.91;5116782;27;43310;-85
2023/03/09 15:36:35;;;;;;;1.40;1.00;;;;;;;16.70;56.62;97273.88;5116478;27;42865;-82
2023/03/09 15:39:05;;;;;;;1.80;0.90;;;;;;;16.44;56.56;97251.91;5132468;27;42502;-87
2023/03/09 15:41:33;;;;;;;2.13;0.97;;;;;;;16.38;56.84;97257.91;5133057;27;38581;-89
2023/03/09 15:44:01;;;;;;;3.17;1.30;;;;;;;16.26;56.87;97256.63;5134028;27;41792;-90
2023/03/09 15:46:29;;;;;;;4.40;1.10;;;;;;;16.14;57.30;97270.31;5117101;27;41483;-89
2023/03/09 15:48:57;;;;;;;4.40;1.00;;;;;;;15.91;58.00;97269.34;5118144;27;42446;-83
2023/03/09 15:51:31;;;;;;;3.70;1.00;;;;;;;15.50;58.72;97240.94;5117137;27;38876;-90
2023/03/09 15:53:59;;;;;;;2.90;1.30;;;;;;;15.34;59.66;97255.94;5117148;27;40752;-85
2023/03/09 15:56:28;;;;;;;2.13;1.30;;;;;;;15.09;60.06;97244.38;5116168;27;41873;-87
2023/03/09 15:58:57;;;;;;;3.53;1.30;;;;;;;14.94;60.52;97250.53;5131041;27;43142;-83
2023/03/09 16:01:26;;;;;;;2.73;1.20;;;;;;;14.72;61.37;97247.44;5116087;27;39888;-88
2023/03/09 16:03:54;;;;;;;3.17;1.10;;;;;;;14.66;61.63;97264.09;5116574;27;40879;-83
2023/03/09 16:06:23;;;;;;;1.70;1.10;;;;;;;14.50;62.29;97265.84;5115556;27;42935;-91
2023/03/09 16:08:52;;;;;;;4.13;1.23;;;;;;;14.30;62.40;97254.56;5116793;27;42888;-87
2023/03/09 16:11:21;;;;;;;2.77;1.20;;;;;;;14.23;62.82;97240.19;5116942;27;38968;-83
2023/03/09 16:13:51;;;;;;;2.70;1.17;;;;;;;14.17;62.83;97251.50;5116925;27;41201;-86
2023/03/09 16:16:19;;;;;;;2.77;1.00;;;;;;;14.19;63.16;97266.31;5133645;27;43054;-88
2023/03/09 16:18:47;;;;;;;4.17;0.90;;;;;;;14.21;63.40;97271.50;5116691;27;42390;-85
2023/03/09 16:21:14;;;;;;;4.03;1.30;;;;;;;14.11;63.37;97244.13;5133647;27;40011;-85
2023/03/09 16:23:42;;;;;;;3.20;1.40;;;;;;;14.17;63.00;97251.50;5116501;27;41736;-90
2023/03/09 16:26:17;;;;;;;2.47;1.23;;;;;;;14.26;63.13;97250.53;5133540;27;44087;-87
2023/03/09 16:28:47;;;;;;;2.87;1.20;;;;;;;14.34;63.83;97263.91;5133326;27;41625;-87
2023/03/09 16:31:18;;;;;;;3.37;1.17;;;;;;;14.24;63.23;97256.00;5116106;27;38994;-85
2023/03/09 16:33:46;;;;;;;2.53;1.07;;;;;;;14.18;63.58;97258.50;5116588;27;43732;-87
2023/03/09 16:36:15;;;;;;;2.37;1.10;;;;;;;14.07;64.09;97248.94;5141475;27;42626;-82
2023/03/09 16:38:43;;;;;;;3.13;1.50;;;;;;;14.00;64.20;97242.56;5134384;27;42650;-81
2023/03/09 16:41:12;;;;;;;5.47;1.60;;;;;;;13.74;64.94;97207.97;5135641;27;41198;-83
2023/03/09 16:43:41;;;;;;;3.57;1.30;;;;;;;13.79;65.40;97232.28;5136215;27;40969;-83
2023/03/09 16:46:19;;;;;;;5.57;2.07;;;;;;;13.66;65.86;97214.06;5136164;27;41707;-81
2023/03/09 16:48:47;;;;;;;4.83;1.27;;;;;;;13.71;65.88;97232.22;5137337;27;42056;-83
2023/03/09 16:51:18;;;;;;;5.60;1.60;;;;;;;13.61;66.75;97223.47;5122954;27;39095;-86
2023/03/09 16:53:47;;;;;;;3.70;1.50;;;;;;;13.55;67.08;97240.06;5136749;27;41517;-83
2023/03/09 16:56:15;;;;;;;3.87;1.63;;;;;;;13.42;67.31;97229.00;5116836;27;42192;-87
2023/03/09 16:58:44;;;;;;;6.60;1.73;;;;;;;13.41;67.60;97235.28;5120057;27;41192;-85
2023/03/09 17:01:14;;;;;;;4.77;1.37;;;;;;;13.24;68.20;97221.84;5118401;27;38849;-87
2023/03/09 17:03:44;;;;;;;4.77;1.43;;;;;;;13.13;68.58;97219.38;5116094;27;41082;-86
2023/03/09 17:06:14;;;;;;;4.63;1.47;;;;;;;13.04;68.97;97212.34;5133541;27;42733;-85
2023/03/09 17:08:42;;;;;;;5.17;1.33;;;;;;;12.98;69.53;97223.59;5115688;27;41041;-87
2023/03/09 17:11:11;;;;;;;5.13;1.30;;;;;;;13.03;70.08;97234.56;5132717;27;39689;-90
2023/03/09 17:13:39;;;;;;;3.13;1.30;;;;;;;13.01;69.58;97247.16;5116764;27;40832;-85
2023/03/09 17:16:08;;;;;;;6.67;1.80;;;;;;;12.82;70.14;97218.09;5133468;27;41894;-90
2023/03/09 17:18:35;;;;;;;4.47;1.33;;;;;;;12.59;71.13;97193.78;5117493;27;41137;-87
2023/03/09 17:21:05;;;;;;;6.67;1.57;;;;;;;12.73;71.58;97237.59;5137346;27;40468;-87
2023/03/09 17:23:33;;;;;;;4.97;1.80;;;;;;;12.52;71.48;97220.06;5119664;27;40867;-87
2023/03/09 17:26:02;;;;;;;4.80;1.90;;;;;;;12.48;71.56;97202.78;5118648;27;42802;-88
2023/03/09 17:28:30;;;;;;;5.50;1.40;;;;;;;12.63;71.81;97226.16;5119471;27;41502;-83
2023/03/09 17:30:58;;;;;;;5.27;1.70;;;;;;;12.68;71.91;97223.91;5118632;27;39640;-87
2023/03/09 17:33:26;;;;;;;4.80;1.50;;;;;;;12.75;71.66;97240.91;5118769;27;40516;-86
2023/03/09 17:35:54;;;;;;;5.73;1.67;;;;;;;12.62;71.82;97219.16;5135574;27;43031;-87
2023/03/09 17:38:24;;;;;;;4.23;1.73;;;;;;;12.57;71.55;97217.81;5102442;27;42493;-88
2023/03/09 17:40:52;;;;;;;7.63;2.07;;;;;;;12.74;72.07;97237.41;5139330;27;40124;-82
2023/03/09 17:43:19;;;;;;;8.50;1.83;;;;;;;12.68;71.58;97230.06;5137715;27;40941;-82
2023/03/09 17:45:57;;;;;;;5.87;1.47;;;;;;;12.84;71.39;97245.34;5140438;27;43387;-88
2023/03/09 17:48:24;;;;;;;2.77;1.40;;;;;;;12.48;71.26;97181.53;5119301;27;42542;-86
2023/03/09 17:50:57;;;;;;;4.40;2.23;;;;;;;12.87;71.17;97247.69;5118665;27;39100;-85
2023/03/09 17:53:28;;;;;;;3.23;1.40;;;;;;;12.87;70.96;97245.03;5118716;27;40410;-89
2023/03/09 17:55:57;;;;;;;6.73;1.77;;;;;;;12.76;70.89;97229.28;5118940;27;41696;-90
2023/03/09 17:58:25;;;;;;;4.80;1.83;;;;;;;12.79;71.20;97243.13;5135755;27;41386;-85
2023/03/09 18:00:53;;;;;;;6.33;2.23;;;;;;;12.85;71.21;97247.84;5118597;27;38632;-82
2023/03/09 18:03:22;;;;;;;4.13;1.70;;;;;;;12.73;71.44;97226.97;5119039;27;40957;-85
2023/03/09 18:05:50;;;;;;;6.73;2.10;;;;;;;12.73;71.28;97216.34;5117900;27;41845;-85
2023/03/09 18:08:18;;;;;;;3.23;1.60;;;;;;;12.85;71.19;97244.34;5118434;27;40814;-90
2023/03/09 18:10:47;;;;;;;5.97;1.70;;;;;;;12.70;71.13;97212.16;5118574;27;39005;-89
2023/03/09 18:13:15;;;;;;;3.83;1.30;;;;;;;12.82;70.97;97231.38;5135588;27;41864;-86
2023/03/09 18:15:43;;;;;;;6.17;2.30;;;;;;;12.84;70.88;97232.06;5118088;27;41801;-87
2023/03/09 18:18:11;;;;;;;7.50;2.07;;;;;;;12.83;71.36;97233.88;5117944;27;41115;-83
2023/03/09 18:20:39;;;;;;;8.23;2.20;;;;;;;12.94;71.02;97251.44;5117994;27;39762;-87
2023/03/09 18:23:07;;;;;;;6.47;2.10;;;;;;;12.96;70.78;97244.16;5135380;27;41587;-88
2023/03/09 18:25:37;;;;;;;8.20;1.70;;;;;;;12.93;70.99;97239.13;5118023;27;43113;-89
2023/03/09 18:28:07;;;;;;;8.70;1.90;;;;;;;12.94;70.98;97246.94;5117599;27;41555;-88
2023/03/09 18:30:36;;;;;;;5.93;1.90;;;;;;;12.85;70.77;97231.09;5117903;27;39914;-86
2023/03/09 18:33:03;;;;;;;5.03;1.60;;;;;;;12.82;70.36;97226.91;5118208;27;41949;-91
2023/03/09 18:35:31;;;;;;;5.10;1.87;;;;;;;12.83;70.53;97222.41;5117878;27;42851;-84
2023/03/09 18:37:59;;;;;;;5.83;1.73;;;;;;;12.73;70.88;97214.53;5117555;27;41363;-88
2023/03/09 18:40:27;;;;;;;6.40;2.40;;;;;;;12.64;71.22;97212.72;5117957;27;39259;-91
2023/03/09 18:42:55;;;;;;;6.53;2.13;;;;;;;12.74;71.27;97231.25;5117423;27;41763;-87
2023/03/09 18:45:25;;;;;;;5.00;1.93;;;;;;;12.58;71.64;97214.19;5101129;27;41772;-89
2023/03/09 18:47:53;;;;;;;6.80;1.90;;;;;;;12.47;71.85;97210.88;5117348;27;42579;-89
2023/03/09 18:50:21;;;;;;;6.23;1.90;;;;;;;12.45;72.48;97213.69;5135977;27;39104;-88
2023/03/09 18:52:49;;;;;;;6.30;2.37;;;;;;;12.29;72.44;97208.16;5117246;27;40752;-88
2023/03/09 18:55:17;;;;;;;5.80;1.80;;;;;;;12.26;73.07;97213.75;5117876;27;42063;-86
2023/03/09 18:57:45;;;;;;;4.57;1.70;;;;;;;12.02;73.90;97189.56;5117037;27;42445;-89
2023/03/09 19:00:15;;;;;;;4.40;2.00;;;;;;;11.97;74.13;97183.88;5117660;27;39054;-90
2023/03/09 19:02:44;;;;;;;8.47;2.20;;;;;;;12.02;73.98;97194.88;5117163;27;41938;-84
2023/03/09 19:05:12;;;;;;;4.63;1.70;;;;;;;11.85;74.23;97183.22;5134587;27;42039;-91
2023/03/09 19:07:40;;;;;;;6.63;1.93;;;;;;;11.79;74.89;97176.66;5116965;27;42084;-83
2023/03/09 19:10:09;;;;;;;8.10;2.20;;;;;;;11.73;74.99;97171.91;5117500;27;38976;-84
2023/03/09 19:12:37;;;;;;;3.40;1.90;;;;;;;11.69;75.20;97161.72;5117146;27;40708;-86
2023/03/09 19:15:06;;;;;;;6.20;2.90;;;;;;;11.62;75.64;97164.09;5117174;27;41556;-85
2023/03/09 19:17:34;;;;;;;7.97;2.40;;;;;;;11.57;75.40;97168.19;5117121;27;40782;-89
2023/03/09 19:20:05;;;;;;;4.47;2.20;;;;;;;11.45;75.82;97148.97;5117289;27;39466;-86
2023/03/09 19:22:33;;;;;;;6.13;2.53;;;;;;;11.41;76.25;97158.16;5117160;27;40720;-88
2023/03/09 19:25:01;;;;;;;6.10;2.70;;;;;;;11.33;75.92;97155.41;5117616;27;41934;-91
2023/03/09 19:27:28;;;;;;;5.87;2.33;;;;;;;11.27;76.06;97156.78;5116807;27;41201;-87
2023/03/09 19:29:56;;;;;;;6.97;3.10;;;;;;;11.22;76.35;97147.59;5117078;27;38970;-88
2023/03/09 19:32:24;;;;;;;6.50;2.87;;;;;;;11.17;76.22;97150.66;5117231;27;40915;-87
2023/03/09 19:34:54;;;;;;;3.90;2.13;;;;;;;11.23;76.29;97166.03;5116961;27;41663;-86
2023/03/09 19:37:24;;;;;;;5.83;1.97;;;;;;;11.07;76.58;97152.50;5116256;27;41575;-88
2023/03/09 19:39:52;;;;;;;4.37;2.00;;;;;;;11.08;76.88;97152.38;5116904;27;38760;-87
2023/03/09 19:42:19;;;;;;;10.57;2.13;;;;;;;10.89;77.20;97127.69;5115122;27;41451;-92
2023/03/09 19:44:47;;;;;;;3.73;1.60;;;;;;;10.97;77.68;97149.88;5116791;27;42341;-84
2023/03/09 19:47:15;;;;;;;5.37;1.63;;;;;;;10.95;77.28;97145.69;5116530;27;41312;-87
2023/03/09 19:49:43;;;;;;;3.93;1.63;;;;;;;10.81;77.28;97128.38;5116460;27;39533;-92
2023/03/09 19:52:11;;;;;;;5.17;2.10;;;;;;;10.75;77.51;97126.31;5116070;27;42816;-88
2023/03/09 19:54:42;;;;;;;3.10;1.60;;;;;;;10.72;77.14;97124.78;5133704;27;43408;-89
2023/03/09 19:57:10;;;;;;;5.43;2.00;;;;;;;10.76;77.61;97120.03;5116543;27;41145;-89
2023/03/09 19:59:39;;;;;;;4.80;1.83;;;;;;;10.75;77.62;97116.56;5116942;27;39314;-89
2023/03/09 20:02:07;;;;;;;5.90;2.20;;;;;;;10.73;78.48;97115.88;5130399;27;42683;-89
2023/03/09 20:04:35;;;;;;;6.57;2.20;;;;;;;10.76;77.42;97112.06;5113147;27;43762;-85
2023/03/09 20:07:03;;;;;;;5.03;1.80;;;;;;;10.88;77.63;97123.38;5132608;27;42507;-86
2023/03/09 20:09:31;;;;;;;6.23;2.00;;;;;;;10.60;77.58;97066.81;5116264;27;38993;-87
2023/03/09 20:12:01;;;;;;;5.83;2.17;;;;;;;10.94;77.56;97114.88;5114498;27;41076;-93
2023/03/09 20:14:29;;;;;;;4.60;2.10;;;;;;;10.78;78.07;97088.94;5111821;27;44003;-86
2023/03/09 20:16:58;;;;;;;5.10;2.13;;;;;;;10.90;77.98;97105.53;5115555;27;41527;-89
2023/03/09 20:19:28;;;;;;;4.23;2.00;;;;;;;10.91;77.89;97092.16;5115781;27;39239;-86
2023/03/09 20:21:56;;;;;;;6.90;2.30;;;;;;;11.00;78.13;97096.59;5125108;27;41000;-89
2023/03/09 20:24:24;;;;;;;5.43;2.20;;;;;;;10.96;77.63;97079.31;5120477;27;41761;-90
2023/03/09 20:26:52;;;;;;;6.80;2.83;;;;;;;11.09;77.61;97098.41;5116145;27;41566;-87
2023/03/09 20:29:23;;;;;;;7.87;2.50;;;;;;;11.10;77.44;97102.72;5116808;27;39404;-86
2023/03/09 20:31:53;;;;;;;4.73;2.70;;;;;;;11.08;77.18;97093.25;5116030;27;41005;-86
2023/03/09 20:34:21;;;;;;;4.53;2.00;;;;;;;11.01;77.17;97098.25;5114279;27;43805;-91
2023/03/09 20:36:50;;;;;;;2.97;1.80;;;;;;;10.85;77.12;97076.00;5114967;27;41276;-89
2023/03/09 20:39:19;;;;;;;3.07;1.77;;;;;;;10.84;77.05;97091.06;5115804;27;39015;-84
2023/03/09 20:41:48;;;;;;;4.90;2.10;;;;;;;10.53;76.96;97045.34;5114338;27;41775;-88
2023/03/09 20:44:16;;;;;;;4.57;1.77;;;;;;;10.44;77.27;97035.63;5114640;27;41472;-88
2023/03/09 20:46:46;;;;;;;5.10;1.93;;;;;;;10.56;77.75;97060.13;5114615;27;42086;-89
2023/03/09 20:49:15;;;;;;;5.03;2.00;;;;;;;10.50;77.72;97052.75;5115779;27;38972;-87
2023/03/09 20:51:43;;;;;;;5.20;1.87;;;;;;;10.35;77.57;97028.53;5114610;27;40902;-88